createdAt,value
2023-01-08T00:01:41.733Z,10.50
2023-01-08T00:04:09.425Z,10.40
2023-01-08T00:06:38.309Z,10.50
2023-01-08T00:09:06.122Z,10.50
2023-01-08T00:11:33.874Z,10.50
2023-01-08T00:14:01.538Z,10.50
2023-01-08T00:16:29.384Z,10.40
2023-01-08T00:18:58.479Z,10.30
2023-01-08T00:21:26.455Z,10.20
2023-01-08T00:23:54.127Z,10.20
2023-01-08T00:26:22.200Z,10.10
2023-01-08T00:28:52.530Z,10.10
2023-01-08T00:31:20.700Z,10.20
2023-01-08T00:33:48.464Z,10.10
2023-01-08T00:36:19.334Z,10.10
2023-01-08T00:38:47.855Z,10.10
2023-01-08T00:41:16.805Z,10.20
2023-01-08T00:43:44.531Z,10.30
2023-01-08T00:46:12.257Z,10.20
2023-01-08T00:48:40.021Z,10.20
2023-01-08T00:51:09.360Z,10.20
2023-01-08T00:53:38.797Z,10.20
2023-01-08T00:56:08.661Z,10.30
2023-01-08T00:58:36.516Z,10.30
2023-01-08T01:01:10.906Z,10.40
2023-01-08T01:03:38.865Z,10.30
2023-01-08T01:06:07.922Z,10.30
2023-01-08T01:08:35.947Z,10.30
2023-01-08T01:11:08.857Z,10.10
2023-01-08T01:13:36.601Z,10.20
2023-01-08T01:16:04.736Z,10.20
2023-01-08T01:18:32.920Z,10.20
2023-01-08T01:21:00.654Z,10.20
2023-01-08T01:23:28.405Z,10.10
2023-01-08T01:25:56.088Z,10.10
2023-01-08T01:28:25.088Z,10.00
2023-01-08T01:30:55.997Z,9.90
2023-01-08T01:33:23.917Z,9.90
2023-01-08T01:36:00.481Z,9.80
2023-01-08T01:38:28.197Z,9.70
2023-01-08T01:40:55.947Z,9.70
2023-01-08T01:43:40.894Z,9.80
2023-01-08T01:46:19.571Z,9.70
2023-01-08T01:48:50.887Z,9.70
2023-01-08T01:51:19.961Z,9.70
2023-01-08T01:53:47.794Z,9.70
2023-01-08T01:56:16.534Z,9.70
2023-01-08T01:58:45.560Z,9.70
2023-01-08T02:01:14.008Z,9.70
2023-01-08T02:03:42.140Z,9.70
2023-01-08T02:06:18.147Z,9.70
2023-01-08T02:08:54.238Z,9.70
2023-01-08T02:11:26.004Z,9.60
2023-01-08T02:14:01.248Z,9.60
2023-01-08T02:16:38.122Z,9.50
2023-01-08T02:19:17.436Z,9.50
2023-01-08T02:21:55.166Z,9.50
2023-01-08T02:24:34.348Z,9.60
2023-01-08T02:27:06.202Z,9.60
2023-01-08T02:29:34.709Z,9.60
2023-01-08T02:32:02.994Z,9.60
2023-01-08T02:34:31.925Z,9.70
2023-01-08T02:37:01.382Z,9.80
2023-01-08T02:39:45.355Z,9.70
2023-01-08T02:42:21.632Z,9.80
2023-01-08T02:44:58.043Z,9.80
2023-01-08T02:47:32.472Z,9.90
2023-01-08T02:50:08.599Z,10.00
2023-01-08T02:52:43.442Z,9.90
2023-01-08T02:55:13.175Z,10.00
2023-01-08T02:57:42.715Z,10.00
2023-01-08T03:00:11.657Z,9.90
2023-01-08T03:02:42.193Z,9.90
2023-01-08T03:05:15.419Z,9.90
2023-01-08T03:07:43.257Z,9.90
2023-01-08T03:10:11.527Z,9.60
2023-01-08T03:12:49.047Z,9.60
2023-01-08T03:15:23.216Z,9.70
2023-01-08T03:17:55.079Z,9.70
2023-01-08T03:20:25.132Z,9.80
2023-01-08T03:22:56.053Z,9.70
2023-01-08T03:25:27.027Z,9.80
2023-01-08T03:28:00.520Z,9.80
2023-01-08T03:30:31.073Z,9.80
2023-01-08T03:33:01.300Z,9.80
2023-01-08T03:35:31.547Z,9.70
2023-01-08T03:38:07.606Z,9.70
2023-01-08T03:40:41.785Z,9.60
2023-01-08T03:43:10.943Z,9.60
2023-01-08T03:45:43.125Z,9.60
2023-01-08T03:48:11.224Z,9.50
2023-01-08T03:50:38.955Z,9.50
2023-01-08T03:53:08.483Z,9.40
2023-01-08T03:55:36.323Z,9.50
2023-01-08T03:58:04.056Z,9.60
2023-01-08T04:00:33.628Z,9.60
2023-01-08T04:03:01.339Z,9.70
2023-01-08T04:05:29.029Z,9.70
2023-01-08T04:07:57.429Z,9.70
2023-01-08T04:10:26.017Z,9.70
2023-01-08T04:12:53.952Z,9.70
2023-01-08T04:15:21.999Z,9.70
2023-01-08T04:17:51.040Z,9.60
2023-01-08T04:20:18.820Z,9.60
2023-01-08T04:22:46.639Z,9.50
2023-01-08T04:25:14.344Z,9.50
2023-01-08T04:27:42.081Z,9.50
2023-01-08T04:30:10.859Z,9.50
2023-01-08T04:32:38.620Z,9.50
2023-01-08T04:35:08.015Z,9.50
2023-01-08T04:37:35.722Z,9.50
2023-01-08T04:40:03.705Z,9.50
2023-01-08T04:42:31.383Z,9.60
2023-01-08T04:44:59.063Z,9.60
2023-01-08T04:47:26.748Z,9.70
2023-01-08T04:49:54.472Z,9.60
2023-01-08T04:52:23.524Z,9.70
2023-01-08T04:54:51.176Z,9.80
2023-01-08T04:57:18.872Z,9.80
2023-01-08T04:59:46.625Z,9.80
2023-01-08T05:02:14.798Z,9.70
2023-01-08T05:04:42.659Z,9.70
2023-01-08T05:07:10.460Z,9.60
2023-01-08T05:09:39.457Z,9.70
2023-01-08T05:12:07.427Z,9.70
2023-01-08T05:14:35.099Z,9.70
2023-01-08T05:17:02.871Z,9.80
2023-01-08T05:19:30.551Z,9.70
2023-01-08T05:21:58.681Z,9.70
2023-01-08T05:24:26.432Z,9.80
2023-01-08T05:26:55.516Z,9.70
2023-01-08T05:29:23.324Z,9.70
2023-01-08T05:31:51.076Z,9.60
2023-01-08T05:34:18.936Z,9.60
2023-01-08T05:36:46.692Z,9.60
2023-01-08T05:39:14.369Z,9.60
2023-01-08T05:41:42.104Z,9.70
2023-01-08T05:44:12.249Z,9.60
2023-01-08T05:46:40.357Z,9.70
2023-01-08T05:49:08.154Z,9.70
2023-01-08T05:51:35.828Z,9.70
2023-01-08T05:54:03.586Z,9.60
2023-01-08T05:56:31.312Z,9.60
2023-01-08T05:58:59.040Z,9.60
2023-01-08T06:01:28.087Z,9.50
2023-01-08T06:03:56.702Z,9.40
2023-01-08T06:06:24.501Z,9.40
2023-01-08T06:08:52.173Z,9.40
2023-01-08T06:11:19.896Z,9.50
2023-01-08T06:13:47.598Z,9.40
2023-01-08T06:16:17.260Z,9.40
2023-01-08T06:18:46.309Z,9.30
2023-01-08T06:21:14.170Z,9.30
2023-01-08T06:23:41.897Z,9.40
2023-01-08T06:26:09.635Z,9.40
2023-01-08T06:28:37.387Z,9.50
2023-01-08T06:31:05.621Z,9.50
2023-01-08T06:33:33.936Z,9.50
2023-01-08T06:36:04.458Z,9.50
2023-01-08T06:38:34.537Z,9.50
2023-01-08T06:41:04.970Z,9.50
2023-01-08T06:43:33.567Z,9.40
2023-01-08T06:46:05.880Z,9.40
2023-01-08T06:48:33.699Z,9.50
2023-01-08T06:51:03.891Z,9.40
2023-01-08T06:53:31.849Z,9.50
2023-01-08T06:55:59.560Z,9.50
2023-01-08T06:58:28.893Z,9.60
2023-01-08T07:01:01.164Z,9.60
2023-01-08T07:03:28.919Z,9.60
2023-01-08T07:05:57.093Z,9.70
2023-01-08T07:08:26.201Z,9.70
2023-01-08T07:10:54.594Z,9.70
2023-01-08T07:13:23.761Z,9.70
2023-01-08T07:15:51.557Z,9.70
2023-01-08T07:18:19.321Z,9.70
2023-01-08T07:20:48.997Z,9.70
2023-01-08T07:23:16.768Z,9.70
2023-01-08T07:25:47.277Z,9.70
2023-01-08T07:28:15.005Z,9.80
2023-01-08T07:30:43.141Z,9.80
2023-01-08T07:33:10.950Z,9.80
2023-01-08T07:35:39.127Z,9.80
2023-01-08T07:38:06.919Z,9.80
2023-01-08T07:40:34.672Z,9.80
2023-01-08T07:43:06.603Z,9.80
2023-01-08T07:45:37.983Z,9.80
2023-01-08T07:48:05.882Z,9.80
2023-01-08T07:50:33.817Z,9.80
2023-01-08T07:53:02.468Z,9.80
2023-01-08T07:55:31.684Z,9.80
2023-01-08T07:57:59.527Z,9.80
2023-01-08T08:00:29.953Z,9.80
2023-01-08T08:03:03.672Z,9.80
2023-01-08T08:05:31.532Z,9.80
2023-01-08T08:08:04.452Z,9.80
2023-01-08T08:10:33.248Z,9.80
2023-01-08T08:13:00.968Z,9.80
2023-01-08T08:15:30.602Z,9.80
2023-01-08T08:17:58.510Z,9.70
2023-01-08T08:20:26.667Z,9.70
2023-01-08T08:23:01.847Z,9.70
2023-01-08T08:25:30.587Z,9.80
2023-01-08T08:27:59.278Z,9.80
2023-01-08T08:30:28.215Z,9.80
2023-01-08T08:33:00.927Z,9.80
2023-01-08T08:35:31.981Z,9.80
2023-01-08T08:38:00.448Z,9.80
2023-01-08T08:40:28.587Z,9.80
2023-01-08T08:42:57.480Z,9.80
2023-01-08T08:45:27.884Z,9.80
2023-01-08T08:47:56.115Z,9.90
2023-01-08T08:50:25.327Z,9.80
2023-01-08T08:52:53.179Z,9.80
2023-01-08T08:55:20.889Z,9.80
2023-01-08T08:57:49.235Z,9.80
2023-01-08T09:00:17.543Z,9.80
2023-01-08T09:02:45.933Z,9.80
2023-01-08T09:05:17.484Z,9.80
2023-01-08T09:07:48.983Z,9.80
2023-01-08T09:10:38.394Z,9.80
2023-01-08T09:13:06.473Z,9.90
2023-01-08T09:15:38.474Z,9.90
2023-01-08T09:18:06.417Z,9.90
2023-01-08T09:20:35.536Z,9.90
2023-01-08T09:23:04.865Z,10.00
2023-01-08T09:25:32.548Z,10.00
2023-01-08T09:28:01.276Z,9.90
2023-01-08T09:30:29.837Z,9.90
2023-01-08T09:33:01.366Z,9.90
2023-01-08T09:35:29.973Z,9.80
2023-01-08T09:37:57.718Z,9.80
2023-01-08T09:40:34.477Z,9.80
2023-01-08T09:43:05.912Z,9.80
2023-01-08T09:45:36.611Z,9.80
2023-01-08T09:48:08.523Z,9.90
2023-01-08T09:50:41.277Z,10.00
2023-01-08T09:53:13.885Z,10.00
2023-01-08T09:55:44.329Z,10.10
2023-01-08T09:58:23.425Z,10.20
2023-01-08T10:00:51.804Z,10.30
2023-01-08T10:03:19.573Z,10.20
2023-01-08T10:05:47.313Z,10.20
2023-01-08T10:08:15.476Z,10.20
2023-01-08T10:10:45.894Z,10.20
2023-01-08T10:13:14.704Z,10.10
2023-01-08T10:15:42.573Z,10.20
2023-01-08T10:18:15.377Z,10.20
2023-01-08T10:20:43.172Z,10.30
2023-01-08T10:23:17.645Z,10.30
2023-01-08T10:25:52.934Z,10.20
2023-01-08T10:28:23.619Z,10.20
2023-01-08T10:30:54.512Z,10.20
2023-01-08T10:33:26.244Z,10.20
2023-01-08T10:35:58.424Z,10.30
2023-01-08T10:38:33.098Z,10.40
2023-01-08T10:41:05.973Z,10.50
2023-01-08T10:43:37.788Z,10.50
2023-01-08T10:46:08.294Z,10.50
2023-01-08T10:48:40.705Z,10.50
2023-01-08T10:51:15.684Z,10.60
2023-01-08T10:53:43.841Z,10.70
2023-01-08T10:56:21.673Z,10.70
2023-01-08T10:58:50.148Z,10.60
2023-01-08T11:01:24.056Z,10.50
2023-01-08T11:03:56.661Z,10.50
2023-01-08T11:06:28.329Z,10.50
2023-01-08T11:08:58.360Z,10.40
2023-01-08T11:11:33.948Z,10.40
2023-01-08T11:14:05.143Z,10.50
2023-01-08T11:16:35.754Z,10.50
2023-01-08T11:19:06.361Z,10.50
2023-01-08T11:21:36.517Z,10.60
2023-01-08T11:24:18.049Z,10.60
2023-01-08T11:26:52.900Z,10.70
2023-01-08T11:29:29.066Z,10.80
2023-01-08T11:32:06.588Z,10.80
2023-01-08T11:34:41.207Z,10.80
2023-01-08T11:37:15.677Z,10.90
2023-01-08T11:39:43.441Z,10.80
2023-01-08T11:42:26.554Z,10.80
2023-01-08T11:45:10.509Z,10.90
2023-01-08T11:47:53.889Z,10.90
2023-01-08T11:50:27.524Z,10.80
2023-01-08T11:53:06.409Z,10.90
2023-01-08T11:55:48.353Z,10.90
2023-01-08T11:58:29.240Z,10.90
2023-01-08T12:01:10.227Z,11.00
2023-01-08T12:03:42.896Z,11.00
2023-01-08T12:06:25.166Z,11.10
2023-01-08T12:09:08.843Z,11.10
2023-01-08T12:11:48.294Z,11.10
2023-01-08T12:14:31.271Z,11.10
2023-01-08T12:17:16.070Z,11.20
2023-01-08T12:19:57.205Z,11.30
2023-01-08T12:22:35.236Z,11.20
2023-01-08T12:25:22.574Z,11.20
2023-01-08T12:28:04.384Z,11.20
2023-01-08T12:30:50.147Z,11.30
2023-01-08T12:33:28.210Z,11.20
2023-01-08T12:36:05.977Z,11.20
2023-01-08T12:38:36.875Z,11.20
2023-01-08T12:41:07.936Z,11.10
2023-01-08T12:43:48.934Z,11.00
2023-01-08T12:46:19.131Z,11.10
2023-01-08T12:48:51.874Z,11.00
2023-01-08T12:51:27.554Z,11.10
2023-01-08T12:54:01.238Z,11.20
2023-01-08T12:56:38.708Z,11.30
2023-01-08T12:59:18.550Z,11.40
2023-01-08T13:01:56.437Z,11.50
2023-01-08T13:04:24.739Z,11.50
2023-01-08T13:06:58.325Z,11.50
2023-01-08T13:09:31.605Z,11.40
2023-01-08T13:12:01.448Z,11.50
2023-01-08T13:14:42.049Z,11.50
2023-01-08T13:17:20.349Z,11.50
2023-01-08T13:19:54.474Z,11.60
2023-01-08T13:22:26.839Z,11.60
2023-01-08T13:25:12.010Z,11.60
2023-01-08T13:27:39.752Z,11.50
2023-01-08T13:30:38.262Z,11.50
2023-01-08T13:33:35.829Z,11.50
2023-01-08T13:36:25.135Z,11.50
2023-01-08T13:39:05.760Z,11.60
2023-01-08T13:41:34.929Z,11.60
2023-01-08T13:44:05.287Z,11.70
2023-01-08T13:46:37.537Z,11.80
2023-01-08T13:49:09.150Z,11.80
2023-01-08T13:51:44.300Z,11.80
2023-01-08T13:54:24.851Z,11.80
2023-01-08T13:56:55.396Z,11.80
2023-01-08T13:59:37.325Z,11.80
2023-01-08T14:02:05.885Z,11.90
2023-01-08T14:04:33.656Z,11.90
2023-01-08T14:07:17.927Z,11.80
2023-01-08T14:09:45.941Z,11.90
2023-01-08T14:12:16.749Z,11.80
2023-01-08T14:14:49.441Z,11.80
2023-01-08T14:17:18.518Z,11.70
2023-01-08T14:19:47.060Z,11.70
2023-01-08T14:22:20.937Z,11.70
2023-01-08T14:24:54.829Z,11.70
2023-01-08T14:27:25.585Z,11.60
2023-01-08T14:29:53.771Z,11.60
2023-01-08T14:32:23.234Z,11.60
2023-01-08T14:34:54.608Z,11.60
2023-01-08T14:37:23.869Z,11.60
2023-01-08T14:39:54.657Z,11.70
2023-01-08T14:42:40.552Z,11.60
2023-01-08T14:45:14.295Z,11.60
2023-01-08T14:47:45.919Z,11.60
2023-01-08T14:50:20.981Z,11.60
2023-01-08T14:52:51.385Z,11.70
2023-01-08T14:55:20.928Z,11.60
2023-01-08T14:57:51.689Z,11.60
2023-01-08T15:00:22.942Z,11.60
2023-01-08T15:02:51.061Z,11.50
2023-01-08T15:05:24.075Z,11.50
2023-01-08T15:08:00.015Z,11.40
2023-01-08T15:10:40.243Z,11.40
2023-01-08T15:13:22.023Z,11.40
2023-01-08T15:15:57.601Z,11.40
2023-01-08T15:18:25.958Z,11.40
2023-01-08T15:20:54.883Z,11.40
2023-01-08T15:23:36.943Z,11.40
2023-01-08T15:26:12.335Z,11.30
2023-01-08T15:28:45.954Z,11.30
2023-01-08T15:31:25.295Z,11.30
2023-01-08T15:33:58.176Z,11.20
2023-01-08T15:36:29.031Z,11.30
2023-01-08T15:38:58.015Z,11.30
2023-01-08T15:41:39.830Z,11.30
2023-01-08T15:44:08.368Z,11.30
2023-01-08T15:46:36.244Z,11.30
2023-01-08T15:49:04.047Z,11.30
2023-01-08T15:51:35.731Z,11.30
2023-01-08T15:54:04.894Z,11.40
2023-01-08T15:56:32.588Z,11.40
2023-01-08T15:59:00.683Z,11.40
2023-01-08T16:01:29.141Z,11.40
2023-01-08T16:03:56.952Z,11.40
2023-01-08T16:06:24.647Z,11.20
2023-01-08T16:08:52.682Z,11.30
2023-01-08T16:11:21.786Z,11.30
2023-01-08T16:13:49.505Z,11.30
2023-01-08T16:16:17.734Z,11.30
2023-01-08T16:18:45.597Z,11.40
2023-01-08T16:21:13.566Z,11.50
2023-01-08T16:23:41.936Z,11.50
2023-01-08T16:26:12.495Z,11.50
2023-01-08T16:28:41.907Z,11.50
2023-01-08T16:31:10.258Z,11.50
2023-01-08T16:33:42.354Z,11.40
2023-01-08T16:36:11.025Z,11.50
2023-01-08T16:38:39.276Z,11.40
2023-01-08T16:41:08.493Z,11.50
2023-01-08T16:43:41.787Z,11.50
2023-01-08T16:46:15.090Z,11.40
2023-01-08T16:48:49.794Z,11.40
2023-01-08T16:51:17.934Z,11.40
2023-01-08T16:53:48.284Z,11.40
2023-01-08T16:56:15.951Z,11.40
2023-01-08T16:58:44.931Z,11.30
2023-01-08T17:01:14.440Z,11.30
2023-01-08T17:03:42.266Z,11.30
2023-01-08T17:06:12.509Z,11.30
2023-01-08T17:08:41.700Z,11.20
2023-01-08T17:11:11.198Z,11.20
2023-01-08T17:13:39.698Z,10.90
2023-01-08T17:16:11.240Z,10.70
2023-01-08T17:18:39.409Z,10.70
2023-01-08T17:21:08.262Z,10.80
2023-01-08T17:23:36.547Z,10.80
2023-01-08T17:26:08.789Z,10.70
2023-01-08T17:28:36.546Z,10.60
2023-01-08T17:31:04.961Z,10.60
2023-01-08T17:33:35.797Z,10.40
2023-01-08T17:36:10.527Z,10.40
2023-01-08T17:38:43.780Z,10.30
2023-01-08T17:41:35.919Z,10.20
2023-01-08T17:44:06.550Z,10.20
2023-01-08T17:46:36.617Z,10.10
2023-01-08T17:49:06.300Z,10.10
2023-01-08T17:51:34.067Z,10.10
2023-01-08T17:54:02.964Z,10.00
2023-01-08T17:56:30.755Z,9.90
2023-01-08T17:58:58.456Z,9.90
2023-01-08T18:01:27.469Z,10.00
2023-01-08T18:03:55.181Z,10.10
2023-01-08T18:06:27.822Z,10.10
2023-01-08T18:08:55.549Z,10.00
2023-01-08T18:11:25.084Z,9.90
2023-01-08T18:13:57.752Z,9.90
2023-01-08T18:16:30.299Z,9.80
2023-01-08T18:18:58.587Z,9.80
2023-01-08T18:21:28.506Z,9.80
2023-01-08T18:23:57.720Z,9.90
2023-01-08T18:26:26.596Z,9.90
2023-01-08T18:28:54.273Z,9.80
2023-01-08T18:31:22.730Z,9.90
2023-01-08T18:33:52.763Z,9.90
2023-01-08T18:36:21.022Z,9.90
2023-01-08T18:38:50.898Z,9.90
2023-01-08T18:41:34.533Z,9.80
2023-01-08T18:44:03.342Z,9.90
2023-01-08T18:46:31.343Z,9.80
2023-01-08T18:49:00.478Z,9.70
2023-01-08T18:51:33.016Z,9.70
2023-01-08T18:54:02.976Z,9.60
2023-01-08T18:56:33.175Z,9.60
2023-01-08T18:59:01.583Z,9.80
2023-01-08T19:01:29.842Z,9.70
2023-01-08T19:03:58.172Z,9.80
2023-01-08T19:06:26.917Z,9.90
2023-01-08T19:08:57.593Z,9.90
2023-01-08T19:11:27.786Z,9.90
2023-01-08T19:13:56.501Z,10.10
2023-01-08T19:16:24.441Z,10.00
2023-01-08T19:18:52.531Z,10.00
2023-01-08T19:21:20.587Z,10.00
2023-01-08T19:23:48.667Z,10.00
2023-01-08T19:26:19.344Z,9.90
2023-01-08T19:28:51.977Z,10.00
2023-01-08T19:31:19.873Z,10.00
2023-01-08T19:33:47.618Z,10.10
2023-01-08T19:36:16.359Z,10.00
2023-01-08T19:38:44.599Z,9.90
2023-01-08T19:41:26.727Z,10.00
2023-01-08T19:43:57.439Z,10.00
2023-01-08T19:46:25.535Z,10.00
2023-01-08T19:48:53.708Z,9.90
2023-01-08T19:51:21.383Z,9.90
2023-01-08T19:53:49.318Z,9.90
2023-01-08T19:56:17.269Z,9.80
2023-01-08T19:58:44.993Z,9.80
2023-01-08T20:01:16.438Z,9.80
2023-01-08T20:03:44.791Z,9.70
2023-01-08T20:06:18.931Z,9.70
2023-01-08T20:08:47.075Z,9.70
2023-01-08T20:11:17.924Z,9.70
2023-01-08T20:13:45.912Z,9.70
2023-01-08T20:16:16.889Z,9.70
2023-01-08T20:18:45.108Z,9.70
2023-01-08T20:21:15.288Z,9.60
2023-01-08T20:23:44.069Z,9.60
2023-01-08T20:26:14.357Z,9.60
2023-01-08T20:28:43.118Z,9.60
2023-01-08T20:31:12.489Z,9.60
2023-01-08T20:33:45.799Z,9.60
2023-01-08T20:36:15.989Z,9.60
2023-01-08T20:38:44.316Z,9.50
2023-01-08T20:41:12.671Z,9.60
2023-01-08T20:43:41.213Z,9.60
2023-01-08T20:46:10.274Z,9.60
2023-01-08T20:48:46.829Z,9.70
2023-01-08T20:51:17.216Z,9.60
2023-01-08T20:53:49.150Z,9.60
2023-01-08T20:56:17.011Z,9.60
2023-01-08T20:58:46.528Z,9.70
2023-01-08T21:01:17.443Z,9.70
2023-01-08T21:03:46.712Z,9.70
2023-01-08T21:06:18.042Z,9.70
2023-01-08T21:08:49.426Z,9.70
2023-01-08T21:11:18.687Z,9.70
2023-01-08T21:13:46.667Z,9.70
2023-01-08T21:16:16.451Z,9.70
2023-01-08T21:18:47.212Z,9.80
2023-01-08T21:21:18.008Z,9.80
2023-01-08T21:23:47.637Z,9.80
2023-01-08T21:26:17.638Z,9.90
2023-01-08T21:28:46.419Z,9.90
2023-01-08T21:31:17.410Z,9.90
2023-01-08T21:33:47.735Z,9.90
2023-01-08T21:36:20.452Z,9.90
2023-01-08T21:38:49.319Z,9.90
2023-01-08T21:41:33.089Z,9.90
2023-01-08T21:44:15.470Z,9.80
2023-01-08T21:46:43.285Z,9.80
2023-01-08T21:49:11.059Z,9.80
2023-01-08T21:51:54.359Z,9.80
2023-01-08T21:54:22.057Z,9.80
2023-01-08T21:56:49.793Z,9.90
2023-01-08T21:59:17.542Z,9.90
2023-01-08T22:01:46.226Z,9.90
2023-01-08T22:04:14.137Z,9.80
2023-01-08T22:06:43.672Z,9.80
2023-01-08T22:09:11.364Z,9.80
2023-01-08T22:11:39.030Z,9.70
2023-01-08T22:14:06.757Z,9.60
2023-01-08T22:16:34.528Z,9.60
2023-01-08T22:19:02.237Z,9.50
2023-01-08T22:21:29.964Z,9.60
2023-01-08T22:23:59.015Z,9.60
2023-01-08T22:26:26.799Z,9.60
2023-01-08T22:28:54.520Z,9.70
2023-01-08T22:31:22.383Z,9.50
2023-01-08T22:33:53.999Z,9.60
2023-01-08T22:36:21.769Z,9.60
2023-01-08T22:38:49.530Z,9.60
2023-01-08T22:41:20.838Z,9.60
2023-01-08T22:43:48.752Z,9.60
2023-01-08T22:46:17.558Z,9.60
2023-01-08T22:48:45.712Z,9.70
2023-01-08T22:51:13.424Z,9.60
2023-01-08T22:53:41.185Z,9.60
2023-01-08T22:56:12.214Z,9.60
2023-01-08T22:58:45.126Z,9.60
2023-01-08T23:01:14.279Z,9.50
2023-01-08T23:03:43.000Z,9.50
2023-01-08T23:06:12.599Z,9.40
2023-01-08T23:08:41.609Z,9.30
2023-01-08T23:11:11.273Z,9.30
2023-01-08T23:13:41.139Z,9.30
2023-01-08T23:16:10.503Z,9.30
2023-01-08T23:18:41.033Z,9.20
2023-01-08T23:21:11.080Z,9.20
2023-01-08T23:23:39.007Z,9.20
2023-01-08T23:26:08.703Z,9.10
2023-01-08T23:28:36.604Z,9.10
2023-01-08T23:31:09.048Z,9.10
2023-01-08T23:33:37.120Z,9.10
2023-01-08T23:36:05.628Z,9.10
2023-01-08T23:38:33.453Z,9.10
2023-01-08T23:41:01.575Z,9.10
2023-01-08T23:43:29.284Z,9.10
2023-01-08T23:45:57.035Z,9.20
2023-01-08T23:48:26.085Z,9.20
2023-01-08T23:50:53.777Z,9.20
2023-01-08T23:53:21.451Z,9.20
2023-01-08T23:55:49.334Z,9.20
2023-01-08T23:58:17.644Z,9.20
